createdAt,value
2022-10-07T00:01:09.057Z,10.50
2022-10-07T00:03:40.178Z,10.35
2022-10-07T00:06:16.408Z,10.34
2022-10-07T00:08:49.154Z,10.34
2022-10-07T00:11:22.517Z,10.33
2022-10-07T00:13:56.177Z,10.34
2022-10-07T00:16:30.040Z,10.28
2022-10-07T00:19:02.888Z,10.21
2022-10-07T00:21:35.463Z,10.18
2022-10-07T00:24:07.102Z,10.30
2022-10-07T00:26:38.364Z,10.24
2022-10-07T00:29:09.711Z,10.20
2022-10-07T00:31:41.611Z,10.21
2022-10-07T00:34:12.688Z,10.20
2022-10-07T00:36:43.565Z,10.12
2022-10-07T00:39:15.887Z,10.18
2022-10-07T00:41:51.822Z,10.20
2022-10-07T00:44:35.412Z,10.18
2022-10-07T00:47:11.736Z,10.13
2022-10-07T00:49:45.265Z,10.15
2022-10-07T00:52:17.195Z,10.10
2022-10-07T00:54:52.344Z,10.09
2022-10-07T00:57:26.083Z,10.10
2022-10-07T00:59:57.389Z,10.10
2022-10-07T01:02:28.355Z,10.03
2022-10-07T01:05:00.751Z,10.00
2022-10-07T01:07:31.932Z,10.00
2022-10-07T01:10:03.659Z,10.00
2022-10-07T01:12:49.110Z,9.92
2022-10-07T01:15:31.355Z,9.92
2022-10-07T01:18:07.785Z,9.91
2022-10-07T01:20:57.971Z,9.88
2022-10-07T01:23:49.384Z,9.86
2022-10-07T01:26:28.413Z,9.81
2022-10-07T01:29:13.814Z,9.80
2022-10-07T01:31:47.231Z,9.82
2022-10-07T01:34:19.762Z,9.79
2022-10-07T01:36:52.622Z,9.75
2022-10-07T01:39:26.083Z,9.68
2022-10-07T01:41:57.489Z,9.74
2022-10-07T01:44:31.463Z,9.72
2022-10-07T01:47:01.986Z,9.72
2022-10-07T01:49:32.286Z,9.78
2022-10-07T01:52:26.296Z,9.71
2022-10-07T01:55:15.212Z,9.74
2022-10-07T01:57:51.416Z,9.65
2022-10-07T02:00:22.704Z,9.62
2022-10-07T02:03:07.603Z,9.65
2022-10-07T02:05:41.109Z,9.57
2022-10-07T02:08:15.038Z,9.52
2022-10-07T02:10:51.241Z,9.50
2022-10-07T02:13:45.652Z,9.53
2022-10-07T02:16:21.756Z,9.50
2022-10-07T02:18:54.432Z,9.50
2022-10-07T02:21:28.317Z,9.44
2022-10-07T02:24:00.861Z,9.47
2022-10-07T02:26:33.886Z,9.49
2022-10-07T02:29:07.713Z,9.52
2022-10-07T02:31:41.457Z,9.51
2022-10-07T02:34:19.543Z,9.47
2022-10-07T02:36:52.631Z,9.48
2022-10-07T02:39:23.005Z,9.48
2022-10-07T02:42:13.940Z,9.48
2022-10-07T02:44:47.403Z,9.50
2022-10-07T02:47:28.241Z,9.46
2022-10-07T02:50:02.032Z,9.44
2022-10-07T02:52:34.344Z,9.42
2022-10-07T02:55:07.780Z,9.36
2022-10-07T02:57:41.750Z,9.36
2022-10-07T03:00:13.476Z,9.31
2022-10-07T03:02:49.579Z,9.34
2022-10-07T03:05:21.617Z,9.24
2022-10-07T03:08:06.421Z,9.17
2022-10-07T03:10:37.070Z,9.21
2022-10-07T03:13:07.734Z,9.14
2022-10-07T03:15:42.564Z,9.29
2022-10-07T03:18:13.935Z,9.23
2022-10-07T03:20:44.313Z,9.16
2022-10-07T03:23:14.807Z,9.10
2022-10-07T03:25:46.880Z,9.06
2022-10-07T03:28:17.130Z,9.04
2022-10-07T03:30:48.595Z,9.04
2022-10-07T03:33:21.365Z,9.00
2022-10-07T03:35:52.002Z,8.94
2022-10-07T03:38:22.720Z,8.87
2022-10-07T03:40:53.386Z,8.93
2022-10-07T03:43:25.051Z,8.88
2022-10-07T03:45:56.937Z,8.87
2022-10-07T03:48:27.309Z,8.90
2022-10-07T03:50:58.277Z,8.94
2022-10-07T03:53:29.775Z,8.84
2022-10-07T03:56:00.171Z,8.92
2022-10-07T03:58:30.858Z,8.84
2022-10-07T04:01:13.328Z,8.83
2022-10-07T04:03:43.907Z,8.81
2022-10-07T04:06:14.746Z,8.80
2022-10-07T04:08:45.245Z,8.70
2022-10-07T04:11:15.694Z,8.76
2022-10-07T04:13:46.098Z,8.80
2022-10-07T04:16:16.639Z,8.70
2022-10-07T04:18:47.292Z,8.56
2022-10-07T04:21:17.606Z,8.58
2022-10-07T04:23:47.917Z,8.56
2022-10-07T04:26:18.298Z,8.56
2022-10-07T04:28:49.213Z,8.47
2022-10-07T04:31:20.468Z,8.44
2022-10-07T04:33:51.200Z,8.52
2022-10-07T04:36:21.616Z,8.50
2022-10-07T04:38:52.041Z,8.41
2022-10-07T04:41:22.364Z,8.46
2022-10-07T04:43:57.655Z,8.47
2022-10-07T04:46:25.402Z,8.40
2022-10-07T04:48:56.132Z,8.39
2022-10-07T04:51:26.438Z,8.40
2022-10-07T04:53:57.330Z,8.35
2022-10-07T04:56:28.584Z,8.30
2022-10-07T04:58:58.975Z,8.35
2022-10-07T05:01:29.395Z,8.32
2022-10-07T05:04:00.290Z,8.27
2022-10-07T05:06:30.636Z,8.38
2022-10-07T05:09:00.929Z,8.27
2022-10-07T05:11:31.249Z,8.20
2022-10-07T05:14:02.041Z,8.24
2022-10-07T05:16:32.344Z,8.25
2022-10-07T05:19:02.845Z,8.20
2022-10-07T05:21:33.728Z,8.21
2022-10-07T05:24:04.221Z,8.23
2022-10-07T05:26:34.573Z,8.22
2022-10-07T05:29:06.918Z,8.18
2022-10-07T05:31:37.506Z,8.20
2022-10-07T05:34:08.128Z,8.16
2022-10-07T05:36:38.771Z,8.20
2022-10-07T05:39:10.180Z,8.28
2022-10-07T05:41:45.747Z,8.20
2022-10-07T05:44:13.089Z,8.28
2022-10-07T05:46:43.414Z,8.29
2022-10-07T05:49:13.758Z,8.30
2022-10-07T05:51:44.055Z,8.28
2022-10-07T05:54:14.362Z,8.33
2022-10-07T05:56:45.024Z,8.31
2022-10-07T05:59:15.542Z,8.28
2022-10-07T06:01:45.888Z,8.16
2022-10-07T06:04:16.267Z,8.16
2022-10-07T06:06:46.896Z,8.30
2022-10-07T06:09:35.223Z,8.24
2022-10-07T06:12:23.708Z,8.20
2022-10-07T06:14:54.102Z,8.28
2022-10-07T06:17:24.456Z,8.36
2022-10-07T06:19:54.841Z,8.39
2022-10-07T06:22:25.193Z,8.40
2022-10-07T06:24:57.073Z,8.42
2022-10-07T06:27:27.629Z,8.38
2022-10-07T06:29:58.124Z,8.45
2022-10-07T06:32:32.484Z,8.51
2022-10-07T06:35:02.865Z,8.59
2022-10-07T06:37:33.458Z,8.56
2022-10-07T06:40:04.029Z,8.62
2022-10-07T06:42:34.421Z,8.67
2022-10-07T06:45:04.803Z,8.77
2022-10-07T06:47:35.020Z,8.84
2022-10-07T06:50:05.943Z,8.85
2022-10-07T06:52:38.924Z,8.91
2022-10-07T06:55:08.848Z,9.02
2022-10-07T06:57:46.788Z,9.13
2022-10-07T07:00:12.242Z,9.16
2022-10-07T07:02:42.681Z,9.31
2022-10-07T07:05:15.498Z,9.31
2022-10-07T07:07:46.035Z,9.36
2022-10-07T07:10:16.615Z,9.42
2022-10-07T07:12:47.269Z,9.46
2022-10-07T07:15:17.964Z,9.68
2022-10-07T07:17:49.014Z,9.73
2022-10-07T07:20:19.649Z,9.81
2022-10-07T07:22:51.686Z,9.86
2022-10-07T07:25:22.414Z,9.94
2022-10-07T07:27:57.630Z,10.04
2022-10-07T07:30:24.853Z,10.11
2022-10-07T07:32:55.523Z,10.14
2022-10-07T07:35:31.418Z,10.22
2022-10-07T07:38:02.041Z,10.34
2022-10-07T07:40:32.367Z,10.41
2022-10-07T07:43:03.470Z,10.47
2022-10-07T07:45:37.923Z,10.62
2022-10-07T07:48:08.310Z,10.71
2022-10-07T07:50:40.901Z,10.76
2022-10-07T07:53:11.284Z,10.84
2022-10-07T07:55:43.622Z,10.94
2022-10-07T07:58:14.108Z,10.98
2022-10-07T08:00:44.438Z,11.07
2022-10-07T08:03:14.925Z,11.10
2022-10-07T08:05:45.339Z,11.24
2022-10-07T08:08:15.729Z,11.42
2022-10-07T08:10:49.692Z,11.45
2022-10-07T08:13:18.235Z,11.54
2022-10-07T08:15:48.972Z,11.68
2022-10-07T08:18:20.014Z,11.79
2022-10-07T08:21:01.460Z,11.92
2022-10-07T08:23:32.598Z,11.94
2022-10-07T08:26:04.065Z,12.02
2022-10-07T08:28:35.243Z,12.16
2022-10-07T08:31:07.790Z,12.29
2022-10-07T08:33:40.661Z,12.35
2022-10-07T08:36:14.161Z,12.52
2022-10-07T08:38:48.439Z,12.56
2022-10-07T08:41:21.904Z,12.64
2022-10-07T08:43:53.043Z,12.74
2022-10-07T08:46:26.611Z,12.88
2022-10-07T08:49:05.915Z,12.98
2022-10-07T08:51:57.799Z,13.06
2022-10-07T08:54:33.262Z,13.18
2022-10-07T08:57:09.621Z,13.35
2022-10-07T08:59:43.002Z,13.44
2022-10-07T09:02:25.707Z,13.45
2022-10-07T09:05:17.142Z,13.55
2022-10-07T09:07:56.308Z,13.80
2022-10-07T09:10:39.131Z,14.01
2022-10-07T09:13:15.942Z,14.14
2022-10-07T09:16:05.938Z,14.22
2022-10-07T09:18:42.720Z,14.42
2022-10-07T09:21:25.554Z,14.54
2022-10-07T09:24:15.257Z,14.98
2022-10-07T09:26:45.686Z,15.43
2022-10-07T09:29:18.988Z,15.69
2022-10-07T09:31:51.789Z,16.14
2022-10-07T09:34:27.532Z,16.63
2022-10-07T09:37:21.900Z,16.68
2022-10-07T09:39:55.097Z,17.14
2022-10-07T09:42:43.243Z,17.87
2022-10-07T09:45:31.652Z,17.71
2022-10-07T09:48:11.076Z,17.54
2022-10-07T09:50:43.387Z,17.18
2022-10-07T09:53:25.849Z,16.60
2022-10-07T09:55:56.216Z,18.07
2022-10-07T09:58:28.472Z,18.31
2022-10-07T10:01:00.787Z,17.84
2022-10-07T10:03:34.349Z,17.58
2022-10-07T10:06:09.722Z,17.07
2022-10-07T10:08:43.124Z,16.85
2022-10-07T10:11:22.604Z,16.46
2022-10-07T10:13:53.442Z,16.41
2022-10-07T10:16:29.721Z,16.12
2022-10-07T10:19:05.239Z,16.16
2022-10-07T10:21:42.607Z,16.25
2022-10-07T10:24:17.439Z,16.25
2022-10-07T10:27:03.708Z,16.33
2022-10-07T10:29:55.406Z,16.44
2022-10-07T10:32:28.869Z,16.44
2022-10-07T10:35:12.733Z,16.42
2022-10-07T10:37:48.909Z,16.24
2022-10-07T10:40:25.274Z,16.34
2022-10-07T10:43:17.043Z,16.32
2022-10-07T10:46:05.278Z,16.53
2022-10-07T10:48:47.694Z,16.97
2022-10-07T10:51:37.643Z,17.04
2022-10-07T10:54:32.427Z,17.27
2022-10-07T10:57:05.825Z,17.46
2022-10-07T10:59:48.104Z,17.37
2022-10-07T11:02:28.809Z,17.49
2022-10-07T11:05:07.886Z,17.29
2022-10-07T11:07:44.334Z,17.63
2022-10-07T11:10:20.566Z,17.55
2022-10-07T11:12:56.037Z,17.44
2022-10-07T11:15:35.526Z,17.36
2022-10-07T11:18:08.973Z,17.28
2022-10-07T11:20:46.605Z,17.38
2022-10-07T11:23:42.863Z,17.56
2022-10-07T11:26:16.312Z,17.86
2022-10-07T11:28:49.533Z,18.56
2022-10-07T11:31:30.748Z,20.15
2022-10-07T11:34:31.162Z,21.02
2022-10-07T11:37:16.246Z,22.34
2022-10-07T11:42:29.642Z,25.23
2022-10-07T11:45:06.035Z,26.80
2022-10-07T11:47:42.115Z,25.89
2022-10-07T11:50:24.439Z,26.20
2022-10-07T11:52:57.898Z,25.03
2022-10-07T11:55:36.788Z,25.23
2022-10-07T11:58:10.332Z,25.16
2022-10-07T12:00:40.797Z,24.94
2022-10-07T12:03:19.996Z,23.58
2022-10-07T12:05:53.522Z,22.26
2022-10-07T12:08:38.546Z,21.52
2022-10-07T12:11:17.705Z,20.20
2022-10-07T12:13:50.779Z,19.26
2022-10-07T12:16:33.544Z,19.16
2022-10-07T12:19:11.425Z,19.10
2022-10-07T12:22:03.550Z,18.88
2022-10-07T12:24:36.463Z,18.21
2022-10-07T12:27:18.496Z,18.54
2022-10-07T12:30:09.128Z,18.34
2022-10-07T12:32:56.086Z,18.40
2022-10-07T12:35:36.099Z,18.37
2022-10-07T12:38:18.364Z,18.47
2022-10-07T12:40:56.916Z,18.19
2022-10-07T12:43:39.136Z,18.09
2022-10-07T12:46:13.564Z,18.13
2022-10-07T12:48:50.181Z,18.03
2022-10-07T12:51:23.700Z,17.97
2022-10-07T12:53:56.293Z,17.82
2022-10-07T12:56:30.033Z,17.80
2022-10-07T12:59:42.479Z,17.69
2022-10-07T13:02:33.761Z,17.66
2022-10-07T13:05:16.023Z,17.84
2022-10-07T13:07:58.367Z,17.86
2022-10-07T13:10:31.846Z,17.82
2022-10-07T13:13:23.347Z,17.79
2022-10-07T13:16:31.991Z,17.76
2022-10-07T13:19:21.881Z,17.53
2022-10-07T13:22:12.423Z,17.63
2022-10-07T13:24:52.040Z,17.62
2022-10-07T13:27:31.329Z,17.58
2022-10-07T13:30:04.071Z,17.66
2022-10-07T13:32:36.715Z,17.62
2022-10-07T13:35:22.424Z,17.56
2022-10-07T13:37:52.814Z,17.62
2022-10-07T13:40:30.324Z,17.56
2022-10-07T13:43:04.110Z,17.66
2022-10-07T13:45:44.090Z,17.59
2022-10-07T13:48:19.674Z,17.72
2022-10-07T13:50:52.007Z,17.70
2022-10-07T13:53:25.607Z,17.73
2022-10-07T13:56:07.811Z,17.66
2022-10-07T13:58:38.442Z,17.65
2022-10-07T14:01:09.176Z,17.65
2022-10-07T14:04:05.412Z,17.60
2022-10-07T14:06:41.648Z,17.68
2022-10-07T14:09:40.255Z,17.72
2022-10-07T14:12:16.689Z,17.60
2022-10-07T14:14:50.283Z,17.67
2022-10-07T14:17:29.554Z,17.59
2022-10-07T14:20:04.299Z,17.57
2022-10-07T14:22:41.052Z,17.44
2022-10-07T14:25:20.398Z,17.40
2022-10-07T14:27:53.904Z,17.34
2022-10-07T14:30:59.627Z,17.35
2022-10-07T14:34:02.841Z,17.39
2022-10-07T14:36:34.789Z,17.38
2022-10-07T14:39:25.869Z,17.24
2022-10-07T14:41:56.424Z,17.18
2022-10-07T14:44:27.009Z,17.24
2022-10-07T14:47:13.029Z,17.10
2022-10-07T14:49:43.355Z,17.19
2022-10-07T14:52:17.140Z,17.07
2022-10-07T14:54:48.905Z,17.03
2022-10-07T14:57:19.220Z,17.10
2022-10-07T14:59:50.090Z,16.96
2022-10-07T15:02:20.653Z,16.94
2022-10-07T15:04:51.121Z,16.92
2022-10-07T15:07:21.678Z,16.79
2022-10-07T15:09:52.024Z,16.85
2022-10-07T15:12:22.502Z,16.77
2022-10-07T15:14:52.843Z,16.62
2022-10-07T15:17:23.916Z,16.56
2022-10-07T15:19:54.396Z,16.52
2022-10-07T15:22:24.843Z,16.48
2022-10-07T15:24:55.271Z,16.42
2022-10-07T15:27:27.536Z,16.46
2022-10-07T15:29:58.380Z,16.45
2022-10-07T15:32:31.339Z,16.38
2022-10-07T15:35:01.820Z,16.30
2022-10-07T15:37:33.513Z,16.26
2022-10-07T15:40:05.631Z,16.19
2022-10-07T15:42:36.035Z,16.20
2022-10-07T15:45:07.559Z,16.11
2022-10-07T15:47:38.896Z,16.14
2022-10-07T15:50:09.746Z,16.04
2022-10-07T15:52:40.137Z,16.03
2022-10-07T15:55:10.652Z,15.92
2022-10-07T15:57:41.325Z,15.92
2022-10-07T16:00:12.910Z,15.87
2022-10-07T16:02:44.073Z,15.78
2022-10-07T16:05:14.914Z,15.74
2022-10-07T16:07:45.317Z,15.77
2022-10-07T16:10:15.720Z,15.62
2022-10-07T16:12:46.300Z,15.56
2022-10-07T16:15:16.977Z,15.46
2022-10-07T16:17:47.458Z,15.31
2022-10-07T16:20:18.495Z,15.18
2022-10-07T16:22:49.246Z,15.13
2022-10-07T16:25:19.760Z,15.10
2022-10-07T16:28:08.015Z,14.97
2022-10-07T16:30:41.099Z,14.82
2022-10-07T16:33:11.514Z,14.76
2022-10-07T16:35:42.392Z,14.63
2022-10-07T16:38:12.699Z,14.58
2022-10-07T16:40:46.128Z,14.56
2022-10-07T16:43:17.103Z,14.47
2022-10-07T16:45:47.675Z,14.40
2022-10-07T16:48:18.153Z,14.32
2022-10-07T16:50:49.500Z,14.28
2022-10-07T16:53:21.666Z,14.30
2022-10-07T16:55:51.979Z,14.26
2022-10-07T16:58:24.233Z,14.18
2022-10-07T17:00:57.654Z,14.07
2022-10-07T17:03:28.084Z,14.00
2022-10-07T17:05:59.335Z,13.91
2022-10-07T17:08:31.294Z,13.86
2022-10-07T17:11:02.390Z,13.80
2022-10-07T17:13:34.381Z,13.75
2022-10-07T17:16:05.787Z,13.72
2022-10-07T17:18:36.138Z,13.67
2022-10-07T17:21:06.520Z,13.59
2022-10-07T17:23:36.909Z,13.54
2022-10-07T17:26:10.769Z,13.47
2022-10-07T17:28:41.210Z,13.46
2022-10-07T17:31:14.672Z,13.40
2022-10-07T17:33:45.782Z,13.33
2022-10-07T17:36:16.146Z,13.32
2022-10-07T17:38:46.477Z,13.24
2022-10-07T17:41:25.475Z,13.20
2022-10-07T17:43:57.668Z,13.19
2022-10-07T17:46:33.319Z,13.12
2022-10-07T17:49:05.072Z,13.08
2022-10-07T17:51:36.981Z,13.06
2022-10-07T17:54:07.748Z,13.09
2022-10-07T17:56:38.119Z,12.97
2022-10-07T17:59:08.483Z,12.92
2022-10-07T18:01:38.836Z,12.94
2022-10-07T18:04:13.328Z,12.90
2022-10-07T18:06:43.793Z,12.88
2022-10-07T18:09:18.433Z,12.86
2022-10-07T18:12:06.867Z,12.80
2022-10-07T18:14:55.097Z,12.82
2022-10-07T18:17:25.484Z,12.72
2022-10-07T18:19:56.648Z,12.71
2022-10-07T18:22:27.094Z,12.76
2022-10-07T18:24:58.533Z,12.80
2022-10-07T18:27:30.053Z,12.82
2022-10-07T18:30:01.347Z,12.83
2022-10-07T18:32:31.907Z,12.86
2022-10-07T18:35:02.239Z,12.80
2022-10-07T18:37:32.949Z,12.76
2022-10-07T18:40:03.393Z,12.73
2022-10-07T18:42:37.185Z,12.70
2022-10-07T18:45:08.376Z,12.76
2022-10-07T18:47:38.766Z,12.79
2022-10-07T18:50:09.534Z,12.76
2022-10-07T18:52:39.890Z,12.70
2022-10-07T18:55:10.431Z,12.72
2022-10-07T18:57:40.680Z,12.68
2022-10-07T19:00:11.876Z,12.66
2022-10-07T19:02:43.765Z,12.68
2022-10-07T19:05:14.153Z,12.63
2022-10-07T19:07:44.792Z,12.58
2022-10-07T19:10:15.674Z,12.58
2022-10-07T19:12:47.594Z,12.52
2022-10-07T19:15:17.977Z,12.56
2022-10-07T19:17:48.784Z,12.54
2022-10-07T19:20:19.473Z,12.58
2022-10-07T19:22:49.848Z,12.56
2022-10-07T19:25:21.839Z,12.45
2022-10-07T19:27:52.241Z,12.45
2022-10-07T19:30:23.044Z,12.44
2022-10-07T19:32:53.366Z,12.40
2022-10-07T19:35:23.760Z,12.43
2022-10-07T19:37:54.146Z,12.44
2022-10-07T19:40:24.535Z,12.40
2022-10-07T19:42:54.943Z,12.44
2022-10-07T19:45:25.403Z,12.38
2022-10-07T19:47:56.310Z,12.38
2022-10-07T19:50:26.701Z,12.34
2022-10-07T19:52:57.330Z,12.40
2022-10-07T19:55:29.517Z,12.36
2022-10-07T19:58:02.022Z,12.28
2022-10-07T20:00:32.385Z,12.29
2022-10-07T20:03:02.778Z,12.26
2022-10-07T20:05:33.192Z,12.28
2022-10-07T20:08:06.853Z,12.26
2022-10-07T20:10:36.982Z,12.22
2022-10-07T20:13:07.285Z,12.24
2022-10-07T20:15:37.605Z,12.20
2022-10-07T20:18:08.947Z,12.18
2022-10-07T20:20:40.031Z,12.15
2022-10-07T20:23:10.428Z,12.09
2022-10-07T20:25:40.748Z,12.05
2022-10-07T20:28:11.155Z,12.03
2022-10-07T20:30:41.604Z,12.04
2022-10-07T20:33:12.865Z,12.02
2022-10-07T20:35:43.152Z,12.00
2022-10-07T20:38:13.459Z,11.98
2022-10-07T20:41:01.725Z,11.96
2022-10-07T20:43:32.365Z,11.94
2022-10-07T20:46:02.841Z,12.00
2022-10-07T20:48:33.728Z,11.90
2022-10-07T20:51:09.601Z,11.90
2022-10-07T20:53:40.004Z,11.90
2022-10-07T20:56:10.369Z,11.84
2022-10-07T20:58:40.730Z,11.85
2022-10-07T21:01:11.639Z,11.84
2022-10-07T21:03:42.182Z,11.83
2022-10-07T21:06:13.025Z,11.76
2022-10-07T21:08:43.622Z,11.81
2022-10-07T21:11:14.963Z,11.81
2022-10-07T21:13:45.369Z,11.74
2022-10-07T21:16:16.871Z,11.71
2022-10-07T21:18:47.630Z,11.79
2022-10-07T21:21:18.729Z,11.94
2022-10-07T21:23:52.840Z,11.85
2022-10-07T21:26:23.516Z,11.84
2022-10-07T21:28:54.003Z,11.84
2022-10-07T21:31:25.382Z,11.86
2022-10-07T21:33:55.798Z,11.78
2022-10-07T21:36:27.033Z,11.78
2022-10-07T21:39:00.852Z,11.75
2022-10-07T21:41:38.321Z,11.91
2022-10-07T21:44:11.498Z,11.83
2022-10-07T21:46:44.287Z,11.85
2022-10-07T21:49:15.857Z,11.82
2022-10-07T21:51:46.283Z,11.81
2022-10-07T21:54:16.732Z,11.83
2022-10-07T21:56:47.611Z,11.75
2022-10-07T21:59:18.274Z,11.80
2022-10-07T22:01:48.602Z,11.74
2022-10-07T22:04:20.239Z,11.77
2022-10-07T22:07:08.661Z,11.70
2022-10-07T22:09:39.055Z,11.66
2022-10-07T22:12:09.548Z,11.68
2022-10-07T22:14:39.940Z,11.64
2022-10-07T22:17:10.353Z,11.66
2022-10-07T22:19:41.309Z,11.66
2022-10-07T22:22:12.949Z,11.60
2022-10-07T22:24:43.382Z,11.60
2022-10-07T22:27:13.703Z,11.59
2022-10-07T22:29:44.088Z,11.54
2022-10-07T22:32:14.653Z,11.56
2022-10-07T22:35:02.890Z,11.50
2022-10-07T22:37:33.377Z,11.51
2022-10-07T22:40:03.836Z,11.54
2022-10-07T22:42:35.919Z,11.53
2022-10-07T22:45:07.291Z,11.58
2022-10-07T22:47:37.998Z,11.54
2022-10-07T22:50:09.119Z,11.49
2022-10-07T22:52:39.352Z,11.54
2022-10-07T22:55:09.896Z,11.50
2022-10-07T22:57:40.251Z,11.46
2022-10-07T23:00:11.977Z,11.46
2022-10-07T23:02:44.180Z,11.47
2022-10-07T23:05:15.056Z,11.45
2022-10-07T23:07:45.452Z,11.49
2022-10-07T23:10:15.842Z,11.52
2022-10-07T23:12:46.797Z,11.59
2022-10-07T23:15:19.096Z,11.50
2022-10-07T23:17:49.462Z,11.48
2022-10-07T23:20:19.790Z,11.41
2022-10-07T23:22:50.181Z,11.40
2022-10-07T23:25:20.586Z,11.36
2022-10-07T23:27:51.087Z,11.34
2022-10-07T23:30:24.697Z,11.34
2022-10-07T23:32:55.381Z,11.28
2022-10-07T23:35:25.654Z,11.28
2022-10-07T23:37:57.300Z,11.28
2022-10-07T23:40:27.754Z,11.26
2022-10-07T23:42:58.142Z,11.29
2022-10-07T23:45:28.744Z,11.28
2022-10-07T23:47:59.113Z,11.25
2022-10-07T23:50:29.624Z,11.21
2022-10-07T23:53:00.134Z,11.20
2022-10-07T23:55:30.574Z,11.17
2022-10-07T23:58:00.983Z,11.16
